Time;durP1;ratioP1;P1;durP2;ratioP2;P2;SDS_P1;SDS_P2;PMS_P1;PMS_P2;Temp;Humidity;BMP_temperature;BMP_pressure;BME280_temperature;BME280_humidity;BME280_pressure;Samples;Min_cycle;Max_cycle;Signal;HPM_P1;HPM_P2
2022/09/29 00:00:51;;;;;;;16.07;13.78;;;;;;;12.84;97.53;100005.23;1822178;78;21851;-94
2022/09/29 00:03:17;;;;;;;14.40;13.00;;;;;;;12.86;97.31;100001.52;1822148;78;20911;-94
2022/09/29 00:05:52;;;;;;;15.23;13.60;;;;;;;12.85;97.29;100009.06;1822084;78;20931;-92
2022/09/29 00:08:20;;;;;;;15.13;13.45;;;;;;;12.84;97.37;100000.80;1822155;78;20946;-94
2022/09/29 00:10:49;;;;;;;15.38;13.10;;;;;;;12.86;97.42;100000.20;1822590;78;20872;-93
2022/09/29 00:13:15;;;;;;;13.93;12.63;;;;;;;12.85;97.48;100007.75;1822236;78;21222;-94
2022/09/29 00:15:42;;;;;;;16.17;14.43;;;;;;;12.86;97.72;100008.58;1822029;78;20998;-92
2022/09/29 00:18:10;;;;;;;15.78;14.13;;;;;;;12.89;97.85;100007.49;1822237;78;20844;-93
2022/09/29 00:20:37;;;;;;;16.42;14.35;;;;;;;12.93;98.02;100014.19;1822169;78;20959;-93
2022/09/29 00:23:05;;;;;;;17.32;14.18;;;;;;;12.95;97.98;100013.59;1822485;78;20931;-91
2022/09/29 00:25:32;;;;;;;16.70;14.33;;;;;;;12.98;97.92;100015.97;1823612;78;21010;-93
2022/09/29 00:27:59;;;;;;;18.12;13.50;;;;;;;12.99;97.80;100017.17;1823475;78;20918;-93
2022/09/29 00:30:26;;;;;;;18.82;14.07;;;;;;;13.02;97.67;100022.66;1821989;78;20895;-93
2022/09/29 00:32:53;;;;;;;16.75;13.18;;;;;;;13.04;97.54;100027.33;1822074;78;20923;-92
2022/09/29 00:35:21;;;;;;;14.80;13.30;;;;;;;13.06;97.42;100029.36;1821912;78;20966;-93
2022/09/29 00:37:47;;;;;;;13.70;12.23;;;;;;;13.06;97.31;100032.00;1821739;78;21257;-93
2022/09/29 00:40:14;;;;;;;17.70;13.83;;;;;;;13.06;97.31;100024.92;1821926;78;20927;-93
2022/09/29 00:42:41;;;;;;;16.85;13.03;;;;;;;13.08;97.33;100031.88;1821894;78;21357;-93
2022/09/29 00:45:18;;;;;;;18.55;14.35;;;;;;;13.11;97.33;100032.45;1821737;78;20879;-94
2022/09/29 00:47:58;;;;;;;19.80;14.38;;;;;;;13.12;97.28;100039.41;1822123;78;20860;-93
2022/09/29 00:50:37;;;;;;;15.03;13.53;;;;;;;13.13;97.27;100040.23;1820817;78;21255;-94
2022/09/29 00:53:10;;;;;;;16.73;14.90;;;;;;;13.14;97.18;100037.49;1821802;78;20978;-95
2022/09/29 00:55:40;;;;;;;19.62;15.30;;;;;;;13.16;97.28;100047.42;1820980;78;20939;-93
2022/09/29 00:58:24;;;;;;;15.45;14.00;;;;;;;13.18;97.24;100049.91;1790605;78;20970;-94
2022/09/29 01:00:50;;;;;;;16.20;14.50;;;;;;;13.20;97.27;100055.90;1810726;78;20876;-93
2022/09/29 01:03:19;;;;;;;15.75;14.20;;;;;;;13.22;97.25;100055.30;1825213;77;21134;-93
2022/09/29 01:05:50;;;;;;;19.48;14.60;;;;;;;13.23;97.29;100054.35;1822975;78;20954;-92
2022/09/29 01:08:41;;;;;;;18.02;15.03;;;;;;;13.24;97.22;100054.20;1821981;78;20911;-96
2022/09/29 01:11:09;;;;;;;17.30;14.47;;;;;;;13.24;97.18;100046.80;1823003;78;20938;-93
2022/09/29 01:13:38;;;;;;;18.12;13.78;;;;;;;13.25;97.38;100058.98;1823840;78;21314;-92
2022/09/29 01:16:04;;;;;;;17.35;15.32;;;;;;;13.24;97.48;100058.16;1822409;78;21157;-94
2022/09/29 01:18:32;;;;;;;14.63;13.08;;;;;;;13.27;97.45;100061.88;1823100;78;20856;-91
2022/09/29 01:21:40;;;;;;;14.85;13.32;;;;;;;13.29;97.27;100056.98;1822737;78;20872;-93
2022/09/29 01:24:27;;;;;;;14.07;12.60;;;;;;;13.26;96.99;100060.19;1822751;78;21354;-94
2022/09/29 01:27:15;;;;;;;14.47;12.90;;;;;;;13.23;96.92;100060.94;1822656;78;20979;-94
2022/09/29 01:30:08;;;;;;;17.05;13.80;;;;;;;13.18;96.79;100053.38;1822828;78;21072;-94
2022/09/29 01:33:02;;;;;;;16.95;13.45;;;;;;;13.13;96.75;100059.98;1822778;78;20919;-93
2022/09/29 01:35:46;;;;;;;14.95;13.58;;;;;;;13.06;96.77;100060.47;1822733;78;20903;-92
2022/09/29 01:38:24;;;;;;;16.37;14.20;;;;;;;13.03;96.96;100063.35;1824226;78;20919;-92
2022/09/29 01:41:13;;;;;;;21.33;12.90;;;;;;;13.00;96.86;100066.21;1824052;78;20876;-92
2022/09/29 01:44:00;;;;;;;17.60;13.85;;;;;;;12.97;96.74;100070.90;1823338;78;21150;-94
2022/09/29 01:46:33;;;;;;;17.50;12.53;;;;;;;12.91;96.51;100074.83;1822982;78;20915;-91
2022/09/29 01:49:02;;;;;;;14.47;12.98;;;;;;;12.86;96.26;100075.20;1791449;78;20891;-91
2022/09/29 01:51:33;;;;;;;14.90;13.40;;;;;;;12.81;96.18;100079.16;1822638;78;20919;-94
2022/09/29 01:54:03;;;;;;;15.45;13.75;;;;;;;12.76;96.09;100070.77;1821503;78;20911;-94
2022/09/29 01:56:39;;;;;;;18.50;12.78;;;;;;;12.69;95.96;100080.94;1821809;78;21108;-94
2022/09/29 01:59:20;;;;;;;16.75;13.50;;;;;;;12.64;95.77;100082.61;1821949;78;20872;-95
2022/09/29 02:01:47;;;;;;;15.18;13.65;;;;;;;12.58;95.62;100084.87;1822022;78;20916;-94
2022/09/29 02:04:25;;;;;;;16.95;13.15;;;;;;;12.51;95.62;100095.52;1822122;78;21386;-95
2022/09/29 02:07:02;;;;;;;15.68;13.53;;;;;;;12.46;95.69;100102.92;1822132;78;20994;-94
2022/09/29 02:09:36;;;;;;;14.03;12.60;;;;;;;12.31;95.87;100088.66;1823343;78;20903;-90
2022/09/29 02:12:03;;;;;;;14.30;12.88;;;;;;;12.33;96.05;100104.33;1819308;78;20954;-93
2022/09/29 02:14:37;;;;;;;13.35;11.75;;;;;;;12.28;96.09;100109.10;1822358;78;21406;-94
2022/09/29 02:17:07;;;;;;;;;;;;;;;12.23;96.11;100108.13;1824669;78;20951;-94
2022/09/29 02:19:36;;;;;;;16.15;12.80;;;;;;;12.19;96.31;100111.94;1821900;78;20117;-93
2022/09/29 02:22:03;;;;;;;14.15;12.50;;;;;;;12.14;96.52;100114.05;1824127;77;21148;-93
2022/09/29 02:24:30;;;;;;;20.08;17.98;;;;;;;12.11;96.74;100112.50;1824336;78;21412;-93
2022/09/29 02:26:56;;;;;;;15.15;13.32;;;;;;;12.08;96.84;100121.11;1822221;78;20965;-94
2022/09/29 02:29:23;;;;;;;16.17;12.88;;;;;;;12.05;96.89;100122.63;1821916;78;20935;-93
2022/09/29 02:31:49;;;;;;;20.20;13.43;;;;;;;12.01;96.92;100127.30;1822014;78;20840;-92
2022/09/29 02:34:18;;;;;;;14.98;13.50;;;;;;;11.98;96.99;100133.62;1822130;78;21912;-93
2022/09/29 02:36:50;;;;;;;13.68;12.28;;;;;;;11.95;96.93;100138.25;1821902;78;20970;-92
2022/09/29 02:42:07;;;;;;;14.03;12.18;;;;;;;11.93;96.59;100152.80;1856454;76;23351;-91
2022/09/29 02:45:16;;;;;;;13.75;12.40;;;;;;;11.85;96.32;100155.14;1822703;78;21311;-94
2022/09/29 02:48:06;;;;;;;13.08;11.68;;;;;;;11.79;96.07;100159.04;1822835;78;21912;-93
2022/09/29 02:50:44;;;;;;;17.75;12.40;;;;;;;11.75;96.05;100168.56;1822737;78;20836;-93
2022/09/29 02:53:26;;;;;;;17.27;13.55;;;;;;;11.70;96.00;100168.91;1822767;78;20919;-93
2022/09/29 02:56:13;;;;;;;31.57;16.23;;;;;;;11.65;95.93;100168.41;1822407;78;20896;-94
2022/09/29 02:58:55;;;;;;;34.13;17.23;;;;;;;11.64;96.33;100169.81;1824386;78;20852;-91
2022/09/29 03:01:21;;;;;;;47.08;20.95;;;;;;;11.62;96.93;100168.60;1822772;78;21928;-91
2022/09/29 03:03:47;;;;;;;53.87;20.37;;;;;;;11.64;97.54;100177.22;1823028;78;21491;-94
2022/09/29 03:06:14;;;;;;;53.33;18.07;;;;;;;11.66;97.99;100177.11;1823011;78;20820;-93
2022/09/29 03:08:42;;;;;;;32.40;17.82;;;;;;;11.69;98.49;100179.03;1822509;78;20856;-93
2022/09/29 03:11:11;;;;;;;29.25;18.45;;;;;;;11.72;98.79;100170.95;1822796;78;20951;-93
2022/09/29 03:13:38;;;;;;;27.35;17.75;;;;;;;11.75;98.88;100172.51;1822700;78;21350;-93
2022/09/29 03:16:05;;;;;;;26.37;17.23;;;;;;;11.74;98.95;100163.80;1822741;78;20832;-93
2022/09/29 03:18:31;;;;;;;24.90;16.50;;;;;;;11.75;99.03;100169.41;1822763;78;20975;-94
2022/09/29 03:20:58;;;;;;;26.87;17.25;;;;;;;11.75;99.02;100178.59;1822918;78;20947;-92
2022/09/29 03:23:25;;;;;;;27.52;16.82;;;;;;;11.74;99.06;100176.10;1822819;78;20915;-91
2022/09/29 03:25:51;;;;;;;25.02;15.63;;;;;;;11.73;99.29;100179.17;1823365;78;21358;-93
2022/09/29 03:28:18;;;;;;;24.05;17.27;;;;;;;11.73;99.39;100176.55;1823469;78;21478;-93
2022/09/29 03:30:46;;;;;;;27.60;17.50;;;;;;;11.71;99.32;100177.13;1823576;78;20927;-93
2022/09/29 03:33:12;;;;;;;26.55;17.10;;;;;;;11.70;99.44;100182.52;1824696;78;20911;-93
2022/09/29 03:35:40;;;;;;;21.23;16.02;;;;;;;11.68;99.72;100182.62;1825043;78;20923;-92
2022/09/29 03:38:07;;;;;;;24.77;16.97;;;;;;;11.71;99.84;100189.44;1767342;78;21238;-94
2022/09/29 03:40:33;;;;;;;20.88;16.95;;;;;;;11.69;99.73;100188.22;1824189;78;20891;-93
2022/09/29 03:43:00;;;;;;;30.50;14.98;;;;;;;11.67;99.42;100187.52;1825598;77;20935;-96
2022/09/29 03:45:26;;;;;;;20.35;15.53;;;;;;;11.66;99.49;100187.62;1824857;77;20876;-93
2022/09/29 03:47:54;;;;;;;19.30;15.48;;;;;;;11.65;99.38;100188.55;1823730;78;20883;-95
2022/09/29 03:50:20;;;;;;;20.72;16.50;;;;;;;11.64;99.17;100184.27;1823244;78;21134;-95
2022/09/29 03:52:47;;;;;;;23.92;16.35;;;;;;;11.61;98.90;100186.16;1822100;78;21365;-94
2022/09/29 03:55:13;;;;;;;23.07;16.05;;;;;;;11.58;98.77;100194.72;1822032;78;20982;-95
2022/09/29 03:57:40;;;;;;;18.12;15.95;;;;;;;11.56;98.64;100199.23;1822166;78;20891;-94
2022/09/29 04:00:08;;;;;;;24.07;17.60;;;;;;;11.53;98.49;100200.30;1821969;78;20868;-94
2022/09/29 04:02:35;;;;;;;39.03;24.23;;;;;;;11.52;98.28;100197.80;1821996;78;21255;-94
2022/09/29 04:05:01;;;;;;;80.97;39.53;;;;;;;11.47;97.99;100200.75;1821971;78;21372;-94
2022/09/29 04:07:28;;;;;;;133.10;69.42;;;;;;;11.46;97.97;100204.79;1822006;78;21417;-94
2022/09/29 04:09:55;;;;;;;95.77;44.67;;;;;;;11.44;97.79;100213.25;1822168;78;20915;-93
2022/09/29 04:12:21;;;;;;;93.22;43.23;;;;;;;11.40;97.67;100217.41;1822123;78;20931;-95
2022/09/29 04:14:49;;;;;;;85.57;43.35;;;;;;;11.39;97.58;100217.51;1822058;78;21298;-93
2022/09/29 04:17:15;;;;;;;88.95;41.18;;;;;;;11.38;97.49;100218.44;1822099;78;20955;-94
2022/09/29 04:19:42;;;;;;;72.12;37.45;;;;;;;11.36;97.34;100222.95;1821872;78;20844;-93
2022/09/29 04:22:10;;;;;;;86.22;35.38;;;;;;;11.34;97.26;100231.44;1822329;78;21065;-92
2022/09/29 04:24:41;;;;;;;77.80;24.45;;;;;;;11.33;97.21;100231.89;1822910;78;20879;-95
2022/09/29 04:27:07;;;;;;;77.42;25.80;;;;;;;11.32;97.25;100238.58;1822780;78;21436;-93
2022/09/29 04:29:34;;;;;;;63.25;25.80;;;;;;;11.33;97.29;100234.99;1822254;78;20876;-94
2022/09/29 04:32:02;;;;;;;35.98;22.67;;;;;;;11.32;97.30;100226.28;1822785;78;20935;-94
2022/09/29 04:34:29;;;;;;;55.90;23.77;;;;;;;11.35;97.39;100227.85;1822006;78;21083;-93
2022/09/29 04:36:58;;;;;;;39.65;22.10;;;;;;;11.38;97.51;100235.50;1822428;78;20977;-92
2022/09/29 04:39:24;;;;;;;30.15;21.85;;;;;;;11.40;97.58;100238.42;1791014;78;21280;-93
2022/09/29 04:41:54;;;;;;;30.17;24.32;;;;;;;11.51;97.95;100241.58;1823644;78;20966;-93
2022/09/29 04:44:23;;;;;;;25.45;21.27;;;;;;;11.78;99.57;100237.50;1822858;78;21432;-93
2022/09/29 04:46:50;;;;;;;20.57;18.02;;;;;;;12.14;100.00;100234.97;1822541;78;20931;-93
2022/09/29 04:49:18;;;;;;;23.95;20.60;;;;;;;12.63;100.00;100236.16;1823092;78;20875;-93
2022/09/29 04:51:45;;;;;;;25.32;19.67;;;;;;;13.07;99.56;100245.57;1822652;78;21154;-94
2022/09/29 04:54:13;;;;;;;23.55;17.52;;;;;;;13.32;96.71;100245.02;1821741;78;20907;-93
2022/09/29 04:56:41;;;;;;;21.80;16.87;;;;;;;13.47;94.63;100241.20;1821905;78;20963;-93
2022/09/29 04:59:09;;;;;;;19.48;17.37;;;;;;;13.50;92.87;100246.25;1824289;78;21154;-94
2022/09/29 05:01:37;;;;;;;18.85;16.30;;;;;;;13.48;91.90;100245.53;1823741;78;20936;-94
2022/09/29 05:04:07;;;;;;;19.77;16.73;;;;;;;13.48;91.49;100252.11;1825241;77;21216;-95
2022/09/29 05:06:38;;;;;;;25.82;18.45;;;;;;;13.48;90.84;100260.84;1824060;78;20839;-93
2022/09/29 05:09:06;;;;;;;21.05;18.15;;;;;;;13.48;90.30;100259.53;1792845;78;20876;-94
2022/09/29 05:11:33;;;;;;;22.30;17.17;;;;;;;13.51;90.10;100267.67;1822804;78;20864;-93
2022/09/29 05:14:02;;;;;;;23.25;19.48;;;;;;;13.54;89.78;100270.53;1824128;78;20903;-95
2022/09/29 05:16:29;;;;;;;26.82;21.97;;;;;;;13.57;89.78;100275.10;1822190;78;21109;-93
2022/09/29 05:18:58;;;;;;;20.97;18.60;;;;;;;13.69;90.22;100271.98;1791731;78;20880;-94
2022/09/29 05:21:29;;;;;;;26.07;20.17;;;;;;;13.90;90.57;100276.05;1822750;78;21201;-94
2022/09/29 05:23:56;;;;;;;22.42;18.30;;;;;;;14.13;90.09;100280.79;1822003;78;20919;-93
2022/09/29 05:26:22;;;;;;;21.02;17.85;;;;;;;14.27;89.06;100283.17;1822488;78;20990;-94
2022/09/29 05:28:49;;;;;;;19.12;16.65;;;;;;;14.35;88.62;100283.84;1822157;78;21425;-94
2022/09/29 05:31:18;;;;;;;22.17;18.35;;;;;;;14.51;89.08;100282.11;1822385;78;20860;-94
2022/09/29 05:33:44;;;;;;;23.60;17.95;;;;;;;14.68;89.13;100291.33;1822707;78;20876;-95
2022/09/29 05:36:11;;;;;;;20.80;17.98;;;;;;;14.93;88.74;100301.51;1822333;78;20924;-93
2022/09/29 05:38:38;;;;;;;20.15;18.05;;;;;;;15.45;89.15;100310.82;1822007;78;20962;-95
2022/09/29 05:41:09;;;;;;;21.30;15.80;;;;;;;16.21;87.87;100310.89;1822917;78;21073;-91
2022/09/29 05:43:37;;;;;;;21.95;16.55;;;;;;;17.09;85.29;100315.77;1825335;78;20848;-91
2022/09/29 05:46:07;;;;;;;22.73;16.35;;;;;;;17.98;82.16;100318.03;1825353;78;20871;-92
2022/09/29 05:48:34;;;;;;;18.67;16.30;;;;;;;18.83;78.66;100316.80;1825525;78;20848;-93
2022/09/29 05:51:08;;;;;;;25.62;21.90;;;;;;;19.62;75.21;100323.48;1825545;78;21396;-93
2022/09/29 05:53:36;;;;;;;18.85;15.95;;;;;;;20.33;71.84;100318.30;1825460;78;21908;-93
2022/09/29 05:56:10;;;;;;;20.72;17.05;;;;;;;21.09;69.07;100319.88;1825333;78;20872;-93
2022/09/29 05:58:38;;;;;;;22.77;16.45;;;;;;;21.75;66.61;100325.63;1824945;78;21397;-93
2022/09/29 06:01:12;;;;;;;18.42;16.55;;;;;;;22.37;64.27;100315.02;1825859;78;20888;-95
2022/09/29 06:03:41;;;;;;;23.10;17.23;;;;;;;22.93;62.08;100317.44;1826938;78;20998;-94
2022/09/29 06:06:12;;;;;;;19.80;16.12;;;;;;;23.52;59.72;100320.73;1827621;78;21496;-94
2022/09/29 06:08:39;;;;;;;18.50;16.60;;;;;;;24.10;57.59;100324.93;1827616;78;20931;-94
2022/09/29 06:11:17;;;;;;;19.73;16.35;;;;;;;24.64;56.01;100323.20;1827143;78;20922;-94
2022/09/29 06:13:49;;;;;;;17.90;15.93;;;;;;;25.03;54.31;100317.36;1827322;78;20896;-93
2022/09/29 06:16:19;;;;;;;18.42;16.42;;;;;;;25.34;52.62;100324.72;1827599;78;20887;-94
2022/09/29 06:18:47;;;;;;;26.35;17.50;;;;;;;25.62;51.66;100326.87;1827044;78;22111;-95
2022/09/29 06:21:24;;;;;;;19.87;15.88;;;;;;;25.92;50.43;100337.38;1799487;78;20887;-93
2022/09/29 06:23:56;;;;;;;20.88;16.07;;;;;;;26.19;49.79;100345.55;1825977;78;20789;-93
2022/09/29 06:29:24;;;;;;;19.67;15.78;;;;;;;26.86;48.14;100348.75;1794963;78;20864;-94
2022/09/29 06:31:51;;;;;;;18.90;15.90;;;;;;;27.32;46.85;100350.32;1799122;78;21121;-95
2022/09/29 06:34:18;;;;;;;19.55;14.60;;;;;;;27.68;45.94;100349.83;1799340;78;20903;-92
2022/09/29 06:39:30;;;;;;;15.05;12.45;;;;;;;28.11;44.10;100336.66;1799511;79;20832;-93
2022/09/29 06:41:57;;;;;;;21.80;14.30;;;;;;;28.24;43.70;100347.09;1800654;79;20863;-90
2022/09/29 06:44:28;;;;;;;14.43;12.80;;;;;;;28.40;43.46;100351.97;1801417;78;21105;-91
2022/09/29 06:46:57;;;;;;;17.50;12.20;;;;;;;28.67;42.81;100353.20;1799847;78;20903;-95
2022/09/29 06:49:24;;;;;;;11.70;10.50;;;;;;;28.85;41.85;100350.56;1798834;79;20864;-94
2022/09/29 06:51:51;;;;;;;14.58;11.12;;;;;;;28.92;41.24;100349.98;1799097;78;20966;-92
2022/09/29 06:54:20;;;;;;;10.90;9.80;;;;;;;28.98;41.08;100356.39;1799001;78;21404;-92
2022/09/29 06:56:48;;;;;;;12.55;9.68;;;;;;;29.14;40.80;100354.52;1798867;78;21232;-92
2022/09/29 06:59:15;;;;;;;10.65;9.58;;;;;;;29.19;40.36;100361.12;1798819;79;20895;-93
2022/09/29 07:01:42;;;;;;;12.90;11.57;;;;;;;29.11;40.38;100367.13;1798780;78;20942;-93
2022/09/29 07:04:09;;;;;;;13.60;11.68;;;;;;;28.99;40.74;100363.43;1798154;78;21513;-91
2022/09/29 07:06:37;;;;;;;14.80;11.75;;;;;;;29.04;41.06;100370.38;1798667;78;20867;-93
2022/09/29 07:09:05;;;;;;;14.23;10.55;;;;;;;29.22;40.62;100365.58;1799725;78;21160;-92
2022/09/29 07:11:34;;;;;;;13.40;10.48;;;;;;;29.45;39.95;100368.17;1799372;78;20800;-94
2022/09/29 07:14:09;;;;;;;11.28;10.10;;;;;;;29.72;38.98;100372.27;1769372;79;20883;-93
2022/09/29 07:16:38;;;;;;;10.90;9.83;;;;;;;29.78;38.41;100368.39;1796637;78;20914;-92
2022/09/29 07:19:04;;;;;;;11.15;9.98;;;;;;;29.68;38.36;100371.56;1799300;79;20842;-92
2022/09/29 07:21:31;;;;;;;51.20;46.60;;;;;;;29.69;38.27;100367.33;1799761;79;21105;-91
2022/09/29 07:23:57;;;;;;;9.48;8.58;;;;;;;29.92;37.92;100372.59;1799590;78;21463;-90
2022/09/29 07:26:24;;;;;;;13.28;7.60;;;;;;;30.05;37.83;100375.67;1791202;79;20924;-92
2022/09/29 07:28:50;;;;;;;8.33;7.53;;;;;;;30.11;37.30;100371.53;1779064;80;20896;-91
2022/09/29 07:31:20;;;;;;;8.63;7.75;;;;;;;30.08;37.52;100380.11;1778512;80;20943;-90
2022/09/29 07:33:48;;;;;;;8.53;7.83;;;;;;;30.11;37.55;100378.83;1778818;80;21212;-92
2022/09/29 07:36:17;;;;;;;5.60;5.20;;;;;;;30.28;37.11;100384.45;1778042;80;21014;-91
2022/09/29 07:38:48;;;;;;;4.85;4.50;;;;;;;30.53;36.71;100381.10;1778609;80;20833;-94
2022/09/29 07:41:15;;;;;;;5.00;4.60;;;;;;;30.62;36.35;100378.08;1778281;80;21385;-91
2022/09/29 07:43:41;;;;;;;5.55;5.15;;;;;;;30.59;35.97;100376.63;1778237;80;20931;-91
2022/09/29 07:46:09;;;;;;;7.25;6.55;;;;;;;30.60;35.93;100379.66;1778999;80;21212;-91
2022/09/29 07:48:37;;;;;;;8.25;6.80;;;;;;;30.69;35.43;100384.22;1780146;80;20944;-92
2022/09/29 07:51:12;;;;;;;6.87;6.25;;;;;;;30.87;34.82;100379.30;1779428;80;20872;-92
2022/09/29 07:53:39;;;;;;;7.15;5.80;;;;;;;30.94;34.50;100378.65;1779029;78;20900;-91
2022/09/29 07:56:08;;;;;;;6.95;6.35;;;;;;;31.16;34.47;100384.34;1779922;80;20872;-90
2022/09/29 07:58:36;;;;;;;6.80;6.22;;;;;;;31.43;34.04;100381.20;1780546;78;21154;-90
2022/09/29 08:01:05;;;;;;;5.83;5.42;;;;;;;31.67;33.77;100380.13;1780202;78;20790;-92
2022/09/29 08:03:32;;;;;;;5.53;4.87;;;;;;;31.80;33.53;100378.52;1780132;78;20907;-91
2022/09/29 08:06:01;;;;;;;6.47;5.87;;;;;;;31.85;33.22;100383.22;1779912;78;20924;-91
2022/09/29 08:08:29;;;;;;;6.95;6.37;;;;;;;31.90;33.38;100387.93;1780115;78;20920;-93
2022/09/29 08:11:07;;;;;;;8.23;5.47;;;;;;;31.83;32.89;100380.46;1779880;78;21129;-92
2022/09/29 08:13:35;;;;;;;7.12;6.55;;;;;;;31.87;33.18;100375.67;1780237;78;20861;-91
2022/09/29 08:16:05;;;;;;;7.53;6.83;;;;;;;32.02;33.10;100372.50;1779632;78;20892;-91
2022/09/29 08:18:32;;;;;;;6.50;6.00;;;;;;;32.26;33.03;100373.77;1780110;78;20849;-89
2022/09/29 08:20:59;;;;;;;6.15;5.47;;;;;;;32.46;32.64;100370.09;1780121;78;20955;-87
2022/09/29 08:23:27;;;;;;;6.12;5.62;;;;;;;32.67;32.49;100371.85;1780256;78;21073;-91
2022/09/29 08:26:03;;;;;;;7.87;7.08;;;;;;;32.78;32.30;100375.84;1780020;78;20849;-89
2022/09/29 08:28:31;;;;;;;7.90;7.17;;;;;;;32.99;32.16;100373.47;1780100;80;20865;-91
2022/09/29 08:31:10;;;;;;;11.48;10.32;;;;;;;33.01;31.71;100379.48;1779843;80;20958;-93
2022/09/29 08:33:37;;;;;;;8.00;7.37;;;;;;;32.93;31.40;100380.73;1777621;80;20927;-91
2022/09/29 08:36:13;;;;;;;12.68;11.68;;;;;;;32.88;31.68;100388.77;1777635;80;21067;-93
2022/09/29 08:38:33;;;;;;;7.70;7.10;;;;;;;32.92;31.50;100388.57;1776453;80;20892;-93
2022/09/29 08:41:03;;;;;;;7.70;6.97;;;;;;;32.80;31.66;100379.14;1777672;80;20912;-90
2022/09/29 08:43:35;;;;;;;8.48;6.00;;;;;;;32.83;32.33;100384.08;1777554;80;20872;-90
2022/09/29 08:46:10;;;;;;;8.05;7.35;;;;;;;32.97;31.98;100379.69;1778188;80;20860;-91
2022/09/29 08:48:45;;;;;;;9.55;7.35;;;;;;;32.97;31.48;100381.89;1777608;80;21227;-92
2022/09/29 08:51:40;;;;;;;9.23;7.80;;;;;;;32.87;31.40;100387.68;1775958;80;20896;-92
2022/09/29 08:54:21;;;;;;;8.15;7.35;;;;;;;32.87;31.95;100380.89;1744385;82;21482;-91
2022/09/29 08:56:48;;;;;;;7.83;7.12;;;;;;;32.96;31.22;100386.20;1742017;82;20984;-93
2022/09/29 08:59:17;;;;;;;8.80;7.55;;;;;;;32.83;31.23;100387.34;1744493;82;21004;-92
2022/09/29 09:01:55;;;;;;;7.17;6.58;;;;;;;32.78;31.39;100392.14;1744310;82;21251;-90
2022/09/29 09:04:42;;;;;;;7.35;6.75;;;;;;;32.76;31.96;100389.39;1723360;82;20916;-91
2022/09/29 09:07:23;;;;;;;7.67;6.95;;;;;;;32.88;31.89;100398.82;1745006;81;21020;-93
2022/09/29 09:10:06;;;;;;;7.08;6.37;;;;;;;33.02;31.85;100405.60;1746795;81;20921;-92
2022/09/29 09:12:54;;;;;;;6.85;6.28;;;;;;;33.11;31.39;100402.79;1745319;82;20917;-90
2022/09/29 09:15:38;;;;;;;8.83;8.00;;;;;;;33.29;31.49;100392.74;1744970;82;21178;-94
2022/09/29 09:18:29;;;;;;;8.38;6.83;;;;;;;33.35;31.30;100392.57;1745632;81;20909;-95
2022/09/29 09:21:09;;;;;;;6.42;5.92;;;;;;;33.37;30.48;100386.86;1744967;82;20889;-93
2022/09/29 09:23:59;;;;;;;6.75;6.25;;;;;;;33.14;30.91;100391.95;1745706;81;21501;-94
2022/09/29 09:26:35;;;;;;;7.30;6.70;;;;;;;32.85;30.89;100387.91;1781491;79;20914;-92
2022/09/29 09:29:07;;;;;;;7.87;7.22;;;;;;;32.75;30.96;100392.65;1800101;78;21241;-93
2022/09/29 09:31:43;;;;;;;8.08;7.37;;;;;;;32.70;31.09;100394.44;1799142;78;20895;-92
2022/09/29 09:34:45;;;;;;;11.50;10.38;;;;;;;32.70;31.07;100404.75;1795929;79;21349;-94
2022/09/29 09:37:23;;;;;;;9.30;8.45;;;;;;;32.71;31.40;100398.27;1799858;78;20859;-95
2022/09/29 09:40:01;;;;;;;10.03;9.18;;;;;;;32.61;31.29;100402.97;1798888;79;21384;-94
2022/09/29 09:42:36;;;;;;;12.78;11.43;;;;;;;32.62;31.16;100405.17;1780479;78;21317;-93
2022/09/29 09:45:35;;;;;;;9.10;8.20;;;;;;;32.59;31.36;100410.56;1798628;78;20824;-91
2022/09/29 09:48:30;;;;;;;8.88;8.18;;;;;;;32.72;31.39;100409.95;1800944;78;20934;-91
2022/09/29 09:51:01;;;;;;;8.48;7.67;;;;;;;32.74;31.40;100415.42;1801054;78;21001;-94
2022/09/29 09:53:37;;;;;;;8.95;8.23;;;;;;;32.80;31.82;100410.92;1795954;78;20939;-93
2022/09/29 09:56:36;;;;;;;11.78;10.13;;;;;;;32.86;31.82;100417.25;1801177;78;21196;-95
2022/09/29 09:59:34;;;;;;;11.40;10.35;;;;;;;32.88;31.24;100417.84;1800787;78;20926;-95
2022/09/29 10:02:01;;;;;;;14.95;11.43;;;;;;;32.79;31.82;100420.97;1800809;78;20934;-94
2022/09/29 10:04:29;;;;;;;15.45;11.80;;;;;;;32.80;31.51;100421.25;1776381;78;20844;-94
2022/09/29 10:06:57;;;;;;;12.10;11.00;;;;;;;32.89;31.39;100434.44;1746865;82;21773;-95
2022/09/29 10:09:26;;;;;;;13.25;11.95;;;;;;;32.89;31.44;100423.58;1746643;81;21118;-93
2022/09/29 10:11:56;;;;;;;15.15;12.13;;;;;;;32.87;31.55;100427.07;1727075;80;21025;-91
2022/09/29 10:14:31;;;;;;;19.67;16.75;;;;;;;32.89;31.58;100427.65;1800873;78;20969;31
2022/09/29 10:17:09;;;;;;;14.00;12.65;;;;;;;32.74;31.51;100430.91;1735696;82;20915;-92
2022/09/29 10:19:59;;;;;;;13.78;12.45;;;;;;;32.35;32.21;100425.23;1756350;81;20974;-92
2022/09/29 10:22:29;;;;;;;51.40;17.40;;;;;;;32.11;32.47;100421.25;1756173;81;21267;-93
2022/09/29 10:25:21;;;;;;;15.50;13.98;;;;;;;31.93;33.15;100424.91;1755276;81;21424;-93
2022/09/29 10:27:53;;;;;;;15.55;13.62;;;;;;;31.90;33.23;100422.66;1754621;81;20876;-94
2022/09/29 10:30:33;;;;;;;17.25;15.45;;;;;;;31.85;33.14;100418.48;1754600;81;20903;-92
2022/09/29 10:33:05;;;;;;;22.58;15.55;;;;;;;31.73;33.38;100410.91;1756071;81;20892;-94
2022/09/29 10:35:36;;;;;;;21.02;15.88;;;;;;;31.63;33.72;100420.97;1755332;81;21096;-95
2022/09/29 10:38:24;;;;;;;23.73;19.30;;;;;;;31.58;34.14;100420.86;1753490;81;20931;-95
2022/09/29 10:40:56;;;;;;;18.17;15.68;;;;;;;31.48;33.93;100413.33;1754092;81;20942;-93
2022/09/29 10:43:39;;;;;;;17.75;15.98;;;;;;;31.50;34.04;100411.19;1754342;81;20903;-94
2022/09/29 10:46:36;;;;;;;19.90;17.02;;;;;;;31.49;33.98;100403.31;1754654;82;20888;-94
2022/09/29 10:49:16;;;;;;;16.32;14.60;;;;;;;31.47;33.93;100404.08;1754682;81;21197;-95
2022/09/29 10:52:04;;;;;;;16.32;14.60;;;;;;;31.34;34.26;100413.22;1667665;84;20999;-94
2022/09/29 10:54:36;;;;;;;18.45;15.70;;;;;;;31.16;34.51;100423.63;1667052;84;20908;-92
2022/09/29 10:57:14;;;;;;;16.70;14.80;;;;;;;30.96;34.74;100414.45;1667923;84;20932;-93
2022/09/29 10:59:48;;;;;;;16.65;14.30;;;;;;;30.83;34.72;100419.50;1665054;84;20913;-96
2022/09/29 11:02:38;;;;;;;16.12;14.28;;;;;;;30.65;34.72;100421.73;1668673;85;21578;-93
2022/09/29 11:05:18;;;;;;;21.48;14.58;;;;;;;30.47;35.02;100421.25;1668673;86;20976;-93
2022/09/29 11:07:47;;;;;;;18.98;17.10;;;;;;;30.35;35.41;100421.74;1668774;84;20936;-93
2022/09/29 11:10:28;;;;;;;16.35;14.65;;;;;;;30.23;35.57;100420.81;1668971;84;21023;-94
2022/09/29 11:12:59;;;;;;;17.20;15.45;;;;;;;30.05;35.69;100423.81;1666534;84;20916;-93
2022/09/29 11:15:40;;;;;;;18.85;15.68;;;;;;;29.75;36.06;100420.50;1670156;86;20920;-93
2022/09/29 11:18:21;;;;;;;22.45;17.02;;;;;;;29.44;36.44;100416.52;1649430;84;20916;-93
2022/09/29 11:20:58;;;;;;;19.30;16.07;;;;;;;29.09;37.18;100417.00;1668397;84;20943;-94
2022/09/29 11:23:46;;;;;;;31.10;18.52;;;;;;;28.80;38.02;100417.89;1668404;83;21011;-90
2022/09/29 11:26:45;;;;;;;22.13;17.70;;;;;;;28.61;38.90;100416.94;1671830;84;21030;-93
2022/09/29 11:29:46;;;;;;;18.65;16.65;;;;;;;28.36;39.13;100422.75;1670935;86;20821;-94
2022/09/29 11:32:48;;;;;;;21.73;18.32;;;;;;;28.03;39.31;100423.69;1610588;87;20971;-94
2022/09/29 11:35:42;;;;;;;21.20;17.75;;;;;;;27.70;40.22;100424.55;1611079;89;21480;-95
2022/09/29 11:38:33;;;;;;;23.62;16.67;;;;;;;27.42;40.97;100419.42;1610801;87;20975;-95
2022/09/29 11:41:17;;;;;;;28.47;21.10;;;;;;;27.18;41.58;100421.64;1611716;87;20973;-94
2022/09/29 11:44:04;;;;;;;;;;;;;;;26.89;41.92;100428.23;1612372;87;21575;-95
2022/09/29 11:46:46;;;;;;;33.65;24.92;;;;;;;26.54;42.55;100422.11;1610696;87;20432;-95